Pawleys Island, SC (29585)

11:10 PM EDT on September 23, 2014 (GMT -0400)
Litchfield Beach | Change Station
CLOSE
Current Station
Personal Weather Station
Location: Pawleys Island, SC
Elevation: 10 ft
Nearby Weather Stations

Elev 10 ft 33.47 °N, 79.10 °W | Updated 0 second ago

Overcast
Overcast
60.0 °F
Feels Like 60.0 °F
N
0.0
Wind Variable Wind from North
Gusts 0.0 mph

Today
High -- | Low -- °F
--% Chance of Precip.
Yesterday
High -- | Low -- °F
Precip. -- in
7:05 AM 7:11 PM
Waning Crescent, 0% visible
Pressure 30.20 in
Visibility 10.0 miles
Clouds Overcast 900 ft
Dew Point 54 °F
Humidity 81%
Rainfall 0.45 in
Snow Depth Not available.
UV 0 out of 12
Pollen 6.90 out of 12
Air Quality Not available.
Flu Activity Not available.
METAR KGGE 240255Z AUTO 03003KT 10SM OVC009 15/15 A3020 RMK AO2

More Conditions Fewer Conditions

Pressure 30.20 in
Visibility 10.0 miles
Clouds Overcast 900 ft
Dew Point 54 °F
Humidity 81%
Rainfall 0.45 in
Snow Depth Not available.
UV 0 out of 12
Pollen 6.90 out of 12
Air Quality Not available.
Flu Activity Not available.
METAR KGGE 240255Z AUTO 03003KT 10SM OVC009 15/15 A3020 RMK AO2

More Conditions Fewer Conditions

10-Day Weather Forecast

Almanac

Astronomy

Sep. 23, 2014 Rise Set
Actual Time 7:05 AM EDT 7:11 PM EDT
Civil Twilight 6:40 AM EDT 7:36 PM EDT
Nautical Twilight 6:11 AM EDT 8:05 PM EDT
Astronomical Twilight 5:42 AM EDT 8:34 PM EDT
Moon 6:28 AM EDT (9/23) 6:50 PM EDT (9/23)
Length of Visible Light 12h 56m
Length of Day
12h 06m
Tomorrow will be 2m 3s shorter.
Waning Crescent, 0% of the Moon is Illuminated
Today
Waning Crescent
Sep 24
New
Oct 1
First Quarter
Oct 8
Full
Oct 15
Last Quarter

Today's Extremes

State Highs State Lows

Community

WunderPhotos

Upload Photos

1,755,877 photos uploaded!

WunderBlogs® & News

Nearby

Snow Depth

Station Depth Elevation
No new snow has been reported.

Earthquake Activity

City Distance Mag. Time & Date
No recent earthquake activity has been reported nearby.
Minimum magnitude displayed is 2.5.

Coastal Water Temperatures

Place Temperature
Springmaid Pier, SC 75.9 °F

Nearby Weather Stations